sensor_id;sensor_type;location;lat;lon;timestamp;pressure;altitude;pressure_sealevel;temperature;humidity
49122;BME280;35529;44.342;25.944;2023-01-29T00:00:53;100976.56;;;2.43;100.00
49122;BME280;35529;44.342;25.944;2023-01-29T00:03:31;100972.97;;;2.44;100.00
49122;BME280;35529;44.342;25.944;2023-01-29T00:05:58;100971.63;;;2.49;100.00
49122;BME280;35529;44.342;25.944;2023-01-29T00:08:26;100976.03;;;2.49;100.00
49122;BME280;35529;44.342;25.944;2023-01-29T00:10:59;100977.25;;;2.45;100.00
49122;BME280;35529;44.342;25.944;2023-01-29T00:13:25;100969.38;;;2.45;100.00
49122;BME280;35529;44.342;25.944;2023-01-29T00:15:59;100968.16;;;2.49;100.00
49122;BME280;35529;44.342;25.944;2023-01-29T00:18:33;100972.19;;;2.53;100.00
49122;BME280;35529;44.342;25.944;2023-01-29T00:21:02;100977.19;;;2.56;100.00
49122;BME280;35529;44.342;25.944;2023-01-29T00:23:29;100978.81;;;2.57;100.00
49122;BME280;35529;44.342;25.944;2023-01-29T00:26:00;100973.72;;;2.56;100.00
49122;BME280;35529;44.342;25.944;2023-01-29T00:28:26;100982.94;;;2.50;100.00
49122;BME280;35529;44.342;25.944;2023-01-29T00:30:58;100975.06;;;2.50;100.00
49122;BME280;35529;44.342;25.944;2023-01-29T00:33:29;100974.78;;;2.53;100.00
49122;BME280;35529;44.342;25.944;2023-01-29T00:36:06;100988.34;;;2.58;100.00
49122;BME280;35529;44.342;25.944;2023-01-29T00:38:33;100988.34;;;2.58;100.00
49122;BME280;35529;44.342;25.944;2023-01-29T00:41:06;100990.97;;;2.58;100.00
49122;BME280;35529;44.342;25.944;2023-01-29T00:43:50;100987.38;;;2.59;100.00
49122;BME280;35529;44.342;25.944;2023-01-29T00:46:35;100988.47;;;2.57;100.00
49122;BME280;35529;44.342;25.944;2023-01-29T00:49:01;100995.78;;;2.53;100.00
49122;BME280;35529;44.342;25.944;2023-01-29T00:51:28;100998.78;;;2.48;100.00
49122;BME280;35529;44.342;25.944;2023-01-29T00:53:54;100992.75;;;2.48;100.00
49122;BME280;35529;44.342;25.944;2023-01-29T00:56:26;100989.84;;;2.51;100.00
49122;BME280;35529;44.342;25.944;2023-01-29T00:58:52;101005.31;;;2.54;100.00
49122;BME280;35529;44.342;25.944;2023-01-29T01:01:19;100998.69;;;2.60;100.00
49122;BME280;35529;44.342;25.944;2023-01-29T01:04:04;101006.69;;;2.58;100.00
49122;BME280;35529;44.342;25.944;2023-01-29T01:06:30;101013.44;;;2.51;100.00
49122;BME280;35529;44.342;25.944;2023-01-29T01:08:56;101009.41;;;2.47;100.00
49122;BME280;35529;44.342;25.944;2023-01-29T01:11:41;101015.34;;;2.49;100.00
49122;BME280;35529;44.342;25.944;2023-01-29T01:14:07;101022.25;;;2.50;100.00
49122;BME280;35529;44.342;25.944;2023-01-29T01:16:33;101021.97;;;2.53;100.00
49122;BME280;35529;44.342;25.944;2023-01-29T01:18:59;101021.75;;;2.56;100.00
49122;BME280;35529;44.342;25.944;2023-01-29T01:21:25;101017.91;;;2.60;100.00
49122;BME280;35529;44.342;25.944;2023-01-29T01:23:51;101014.19;;;2.63;100.00
49122;BME280;35529;44.342;25.944;2023-01-29T01:26:18;101017.03;;;2.60;100.00
49122;BME280;35529;44.342;25.944;2023-01-29T01:28:44;101013.59;;;2.59;100.00
49122;BME280;35529;44.342;25.944;2023-01-29T01:31:11;101013.56;;;2.49;100.00
49122;BME280;35529;44.342;25.944;2023-01-29T01:33:38;101016.13;;;2.40;100.00
49122;BME280;35529;44.342;25.944;2023-01-29T01:36:05;101015.00;;;2.32;100.00
49122;BME280;35529;44.342;25.944;2023-01-29T01:38:37;101005.72;;;2.28;100.00
49122;BME280;35529;44.342;25.944;2023-01-29T01:41:19;101011.72;;;2.40;100.00
49122;BME280;35529;44.342;25.944;2023-01-29T01:43:53;101015.75;;;2.44;100.00
49122;BME280;35529;44.342;25.944;2023-01-29T01:46:19;101017.72;;;2.52;100.00
49122;BME280;35529;44.342;25.944;2023-01-29T01:48:47;101021.16;;;2.53;100.00
49122;BME280;35529;44.342;25.944;2023-01-29T01:51:15;101024.50;;;2.55;100.00
49122;BME280;35529;44.342;25.944;2023-01-29T01:53:47;101012.78;;;2.59;100.00
49122;BME280;35529;44.342;25.944;2023-01-29T01:56:20;101012.50;;;2.62;100.00
49122;BME280;35529;44.342;25.944;2023-01-29T01:58:52;101019.16;;;2.66;100.00
49122;BME280;35529;44.342;25.944;2023-01-29T02:01:22;101014.88;;;2.65;100.00
49122;BME280;35529;44.342;25.944;2023-01-29T02:03:55;101027.13;;;2.55;100.00
49122;BME280;35529;44.342;25.944;2023-01-29T02:06:42;101028.59;;;2.47;100.00
49122;BME280;35529;44.342;25.944;2023-01-29T02:09:30;101024.84;;;2.40;100.00
49122;BME280;35529;44.342;25.944;2023-01-29T02:12:07;101028.66;;;2.36;100.00
49122;BME280;35529;44.342;25.944;2023-01-29T02:14:37;101030.00;;;2.30;100.00
49122;BME280;35529;44.342;25.944;2023-01-29T02:17:08;101030.13;;;2.29;100.00
49122;BME280;35529;44.342;25.944;2023-01-29T02:19:46;101035.75;;;2.24;100.00
49122;BME280;35529;44.342;25.944;2023-01-29T02:22:23;101033.50;;;2.20;100.00
49122;BME280;35529;44.342;25.944;2023-01-29T02:27:20;101028.41;;;2.18;100.00
49122;BME280;35529;44.342;25.944;2023-01-29T02:40:28;101035.22;;;2.30;100.00
49122;BME280;35529;44.342;25.944;2023-01-29T02:42:58;101039.03;;;2.38;100.00
49122;BME280;35529;44.342;25.944;2023-01-29T02:45:44;101036.13;;;2.41;100.00
49122;BME280;35529;44.342;25.944;2023-01-29T02:48:18;101039.19;;;2.46;100.00
49122;BME280;35529;44.342;25.944;2023-01-29T02:50:47;101034.41;;;2.51;100.00
49122;BME280;35529;44.342;25.944;2023-01-29T02:53:16;101037.59;;;2.55;100.00
49122;BME280;35529;44.342;25.944;2023-01-29T02:58:47;101030.28;;;2.58;100.00
49122;BME280;35529;44.342;25.944;2023-01-29T03:04:05;101025.00;;;2.48;100.00
49122;BME280;35529;44.342;25.944;2023-01-29T03:06:34;101034.66;;;2.48;100.00
49122;BME280;35529;44.342;25.944;2023-01-29T03:09:03;101024.59;;;2.53;100.00
49122;BME280;35529;44.342;25.944;2023-01-29T03:11:33;101033.88;;;2.57;100.00
49122;BME280;35529;44.342;25.944;2023-01-29T03:14:02;101029.47;;;2.58;100.00
49122;BME280;35529;44.342;25.944;2023-01-29T03:16:34;101030.56;;;2.55;100.00
49122;BME280;35529;44.342;25.944;2023-01-29T03:19:10;101034.97;;;2.55;100.00
49122;BME280;35529;44.342;25.944;2023-01-29T03:21:42;101027.63;;;2.48;100.00
49122;BME280;35529;44.342;25.944;2023-01-29T03:24:24;101028.00;;;2.44;100.00
49122;BME280;35529;44.342;25.944;2023-01-29T03:27:10;101035.03;;;2.43;100.00
49122;BME280;35529;44.342;25.944;2023-01-29T03:29:56;101028.97;;;2.43;100.00
49122;BME280;35529;44.342;25.944;2023-01-29T03:32:42;101035.69;;;2.35;100.00
49122;BME280;35529;44.342;25.944;2023-01-29T03:35:09;101034.28;;;2.31;100.00
49122;BME280;35529;44.342;25.944;2023-01-29T03:37:42;101036.22;;;2.29;100.00
49122;BME280;35529;44.342;25.944;2023-01-29T03:40:10;101044.31;;;2.26;100.00
49122;BME280;35529;44.342;25.944;2023-01-29T03:42:44;101045.66;;;2.21;100.00
49122;BME280;35529;44.342;25.944;2023-01-29T03:50:37;101040.63;;;2.08;100.00
49122;BME280;35529;44.342;25.944;2023-01-29T03:55:40;101045.72;;;2.09;100.00
49122;BME280;35529;44.342;25.944;2023-01-29T03:58:31;101046.34;;;2.01;100.00
49122;BME280;35529;44.342;25.944;2023-01-29T04:00:59;101052.88;;;2.07;100.00
49122;BME280;35529;44.342;25.944;2023-01-29T04:06:06;101056.72;;;2.03;100.00
49122;BME280;35529;44.342;25.944;2023-01-29T04:08:40;101062.06;;;2.01;100.00
49122;BME280;35529;44.342;25.944;2023-01-29T04:11:11;101060.28;;;2.02;100.00
49122;BME280;35529;44.342;25.944;2023-01-29T04:13:39;101061.94;;;2.03;100.00
49122;BME280;35529;44.342;25.944;2023-01-29T04:16:05;101063.63;;;2.04;100.00
49122;BME280;35529;44.342;25.944;2023-01-29T04:18:34;101070.75;;;2.02;100.00
49122;BME280;35529;44.342;25.944;2023-01-29T04:21:01;101075.63;;;2.07;100.00
49122;BME280;35529;44.342;25.944;2023-01-29T04:23:27;101073.47;;;2.12;100.00
49122;BME280;35529;44.342;25.944;2023-01-29T04:26:36;101070.94;;;2.10;100.00
49122;BME280;35529;44.342;25.944;2023-01-29T04:28:50;101075.97;;;2.13;100.00
49122;BME280;35529;44.342;25.944;2023-01-29T04:31:19;101082.28;;;2.11;100.00
49122;BME280;35529;44.342;25.944;2023-01-29T04:34:50;101081.88;;;2.15;100.00
49122;BME280;35529;44.342;25.944;2023-01-29T04:36:47;101081.06;;;2.15;100.00
49122;BME280;35529;44.342;25.944;2023-01-29T04:39:23;101083.19;;;2.21;100.00
49122;BME280;35529;44.342;25.944;2023-01-29T04:41:52;101090.06;;;2.22;100.00
49122;BME280;35529;44.342;25.944;2023-01-29T04:44:22;101090.34;;;2.19;100.00
49122;BME280;35529;44.342;25.944;2023-01-29T04:46:56;101083.88;;;2.23;100.00
49122;BME280;35529;44.342;25.944;2023-01-29T04:51:56;101090.59;;;2.16;100.00
49122;BME280;35529;44.342;25.944;2023-01-29T04:54:31;101095.13;;;2.14;100.00
49122;BME280;35529;44.342;25.944;2023-01-29T04:59:32;101093.09;;;2.17;100.00
49122;BME280;35529;44.342;25.944;2023-01-29T05:02:03;101092.22;;;2.17;100.00
49122;BME280;35529;44.342;25.944;2023-01-29T05:04:35;101096.78;;;2.15;100.00
49122;BME280;35529;44.342;25.944;2023-01-29T05:07:07;101106.13;;;2.08;100.00
49122;BME280;35529;44.342;25.944;2023-01-29T05:09:35;101107.06;;;2.07;100.00
49122;BME280;35529;44.342;25.944;2023-01-29T05:12:02;101114.72;;;1.98;100.00
49122;BME280;35529;44.342;25.944;2023-01-29T05:14:29;101110.69;;;1.94;100.00
49122;BME280;35529;44.342;25.944;2023-01-29T05:16:57;101111.50;;;1.95;100.00
49122;BME280;35529;44.342;25.944;2023-01-29T05:19:28;101111.88;;;1.90;100.00
49122;BME280;35529;44.342;25.944;2023-01-29T05:21:54;101113.53;;;1.91;100.00
49122;BME280;35529;44.342;25.944;2023-01-29T05:24:22;101117.34;;;1.87;100.00
49122;BME280;35529;44.342;25.944;2023-01-29T05:26:49;101118.09;;;1.89;100.00
49122;BME280;35529;44.342;25.944;2023-01-29T05:29:34;101117.69;;;1.94;100.00
49122;BME280;35529;44.342;25.944;2023-01-29T05:32:01;101109.25;;;1.90;100.00
49122;BME280;35529;44.342;25.944;2023-01-29T05:34:31;101109.63;;;1.86;100.00
49122;BME280;35529;44.342;25.944;2023-01-29T05:37:00;101113.78;;;1.88;100.00
49122;BME280;35529;44.342;25.944;2023-01-29T05:39:26;101113.66;;;1.90;100.00
49122;BME280;35529;44.342;25.944;2023-01-29T05:41:52;101115.19;;;1.92;100.00
49122;BME280;35529;44.342;25.944;2023-01-29T05:44:18;101120.69;;;1.89;100.00
49122;BME280;35529;44.342;25.944;2023-01-29T05:46:45;101132.00;;;1.90;100.00
49122;BME280;35529;44.342;25.944;2023-01-29T05:49:11;101127.84;;;1.87;100.00
49122;BME280;35529;44.342;25.944;2023-01-29T05:51:37;101128.09;;;1.84;100.00
49122;BME280;35529;44.342;25.944;2023-01-29T05:54:06;101140.47;;;1.82;100.00
49122;BME280;35529;44.342;25.944;2023-01-29T05:56:32;101141.31;;;1.82;100.00
49122;BME280;35529;44.342;25.944;2023-01-29T05:59:00;101141.31;;;1.82;100.00
49122;BME280;35529;44.342;25.944;2023-01-29T06:01:26;101135.94;;;1.84;100.00
49122;BME280;35529;44.342;25.944;2023-01-29T06:03:53;101147.00;;;1.88;100.00
49122;BME280;35529;44.342;25.944;2023-01-29T06:06:21;101151.47;;;1.97;100.00
49122;BME280;35529;44.342;25.944;2023-01-29T06:08:47;101154.56;;;2.02;100.00
49122;BME280;35529;44.342;25.944;2023-01-29T06:11:16;101158.72;;;2.05;100.00
49122;BME280;35529;44.342;25.944;2023-01-29T06:13:45;101155.88;;;2.08;100.00
49122;BME280;35529;44.342;25.944;2023-01-29T06:16:14;101172.75;;;2.15;100.00
49122;BME280;35529;44.342;25.944;2023-01-29T06:18:41;101167.47;;;2.26;100.00
49122;BME280;35529;44.342;25.944;2023-01-29T06:21:08;101169.19;;;2.37;100.00
49122;BME280;35529;44.342;25.944;2023-01-29T06:23:35;101175.97;;;2.40;100.00
49122;BME280;35529;44.342;25.944;2023-01-29T06:26:03;101172.63;;;2.49;100.00
49122;BME280;35529;44.342;25.944;2023-01-29T06:28:29;101179.16;;;2.55;100.00
49122;BME280;35529;44.342;25.944;2023-01-29T06:30:56;101176.78;;;2.51;100.00
49122;BME280;35529;44.342;25.944;2023-01-29T06:33:23;101173.53;;;2.59;100.00
49122;BME280;35529;44.342;25.944;2023-01-29T06:35:49;101185.06;;;2.68;100.00
49122;BME280;35529;44.342;25.944;2023-01-29T06:38:15;101179.81;;;2.68;100.00
49122;BME280;35529;44.342;25.944;2023-01-29T06:40:41;101191.31;;;2.77;100.00
49122;BME280;35529;44.342;25.944;2023-01-29T06:43:07;101188.69;;;2.77;100.00
49122;BME280;35529;44.342;25.944;2023-01-29T06:45:33;101188.41;;;2.80;100.00
49122;BME280;35529;44.342;25.944;2023-01-29T06:47:59;101191.63;;;2.83;100.00
49122;BME280;35529;44.342;25.944;2023-01-29T06:50:25;101197.59;;;2.85;100.00
49122;BME280;35529;44.342;25.944;2023-01-29T06:52:51;101200.09;;;2.87;100.00
49122;BME280;35529;44.342;25.944;2023-01-29T06:55:17;101198.16;;;2.89;100.00
49122;BME280;35529;44.342;25.944;2023-01-29T06:57:43;101206.72;;;2.91;100.00
49122;BME280;35529;44.342;25.944;2023-01-29T07:00:10;101205.97;;;3.00;100.00
49122;BME280;35529;44.342;25.944;2023-01-29T07:02:36;101201.63;;;3.11;100.00
49122;BME280;35529;44.342;25.944;2023-01-29T07:05:02;101212.03;;;3.22;100.00
49122;BME280;35529;44.342;25.944;2023-01-29T07:07:28;101208.03;;;3.28;100.00
49122;BME280;35529;44.342;25.944;2023-01-29T07:09:54;101210.84;;;3.36;100.00
49122;BME280;35529;44.342;25.944;2023-01-29T07:12:20;101215.13;;;3.37;100.00
49122;BME280;35529;44.342;25.944;2023-01-29T07:14:47;101224.16;;;3.44;100.00
49122;BME280;35529;44.342;25.944;2023-01-29T07:17:13;101224.47;;;3.51;100.00
49122;BME280;35529;44.342;25.944;2023-01-29T07:19:39;101227.25;;;3.59;100.00
49122;BME280;35529;44.342;25.944;2023-01-29T07:22:05;101220.66;;;3.65;100.00
49122;BME280;35529;44.342;25.944;2023-01-29T07:24:31;101228.97;;;3.70;100.00
49122;BME280;35529;44.342;25.944;2023-01-29T07:26:57;101228.97;;;3.80;100.00
49122;BME280;35529;44.342;25.944;2023-01-29T07:29:23;101224.31;;;3.83;100.00
49122;BME280;35529;44.342;25.944;2023-01-29T07:31:49;101231.78;;;3.88;100.00
49122;BME280;35529;44.342;25.944;2023-01-29T07:34:15;101228.19;;;3.89;100.00
49122;BME280;35529;44.342;25.944;2023-01-29T07:36:41;101225.03;;;3.95;100.00
49122;BME280;35529;44.342;25.944;2023-01-29T07:39:08;101236.13;;;4.09;100.00
49122;BME280;35529;44.342;25.944;2023-01-29T07:41:34;101236.53;;;4.14;100.00
49122;BME280;35529;44.342;25.944;2023-01-29T07:44:00;101243.75;;;4.22;100.00
49122;BME280;35529;44.342;25.944;2023-01-29T07:46:26;101244.19;;;4.36;100.00
49122;BME280;35529;44.342;25.944;2023-01-29T07:48:52;101244.34;;;4.55;100.00
49122;BME280;35529;44.342;25.944;2023-01-29T07:51:18;101241.03;;;4.72;100.00
49122;BME280;35529;44.342;25.944;2023-01-29T07:53:46;101247.78;;;4.84;100.00
49122;BME280;35529;44.342;25.944;2023-01-29T07:56:12;101247.63;;;5.06;100.00
49122;BME280;35529;44.342;25.944;2023-01-29T07:58:38;101242.34;;;5.25;100.00
49122;BME280;35529;44.342;25.944;2023-01-29T08:01:05;101246.59;;;5.36;100.00
49122;BME280;35529;44.342;25.944;2023-01-29T08:03:32;101258.06;;;5.45;100.00
49122;BME280;35529;44.342;25.944;2023-01-29T08:05:58;101254.97;;;5.59;100.00
49122;BME280;35529;44.342;25.944;2023-01-29T08:08:24;101260.69;;;5.54;100.00
49122;BME280;35529;44.342;25.944;2023-01-29T08:10:51;101265.00;;;5.46;100.00
49122;BME280;35529;44.342;25.944;2023-01-29T08:13:17;101261.00;;;5.42;100.00
49122;BME280;35529;44.342;25.944;2023-01-29T08:15:43;101259.19;;;5.42;100.00
49122;BME280;35529;44.342;25.944;2023-01-29T08:18:12;101250.50;;;5.22;100.00
49122;BME280;35529;44.342;25.944;2023-01-29T08:20:39;101256.63;;;5.13;100.00
49122;BME280;35529;44.342;25.944;2023-01-29T08:23:06;101256.34;;;5.16;100.00
49122;BME280;35529;44.342;25.944;2023-01-29T08:25:32;101258.97;;;5.16;100.00
49122;BME280;35529;44.342;25.944;2023-01-29T08:27:59;101258.41;;;5.22;100.00
49122;BME280;35529;44.342;25.944;2023-01-29T08:30:26;101265.22;;;5.15;100.00
49122;BME280;35529;44.342;25.944;2023-01-29T08:32:52;101261.88;;;5.13;100.00
49122;BME280;35529;44.342;25.944;2023-01-29T08:35:18;101268.53;;;5.27;100.00
49122;BME280;35529;44.342;25.944;2023-01-29T08:37:50;101270.28;;;5.46;100.00
49122;BME280;35529;44.342;25.944;2023-01-29T08:40:17;101272.94;;;5.74;100.00
49122;BME280;35529;44.342;25.944;2023-01-29T08:42:43;101269.94;;;5.96;100.00
49122;BME280;35529;44.342;25.944;2023-01-29T08:45:09;101269.59;;;6.09;100.00
49122;BME280;35529;44.342;25.944;2023-01-29T08:47:35;101265.06;;;6.29;100.00
49122;BME280;35529;44.342;25.944;2023-01-29T08:50:01;101269.81;;;6.44;100.00
49122;BME280;35529;44.342;25.944;2023-01-29T08:52:28;101269.44;;;6.38;100.00
49122;BME280;35529;44.342;25.944;2023-01-29T08:54:54;101261.91;;;6.44;100.00
49122;BME280;35529;44.342;25.944;2023-01-29T08:57:20;101277.13;;;6.68;100.00
49122;BME280;35529;44.342;25.944;2023-01-29T08:59:46;101262.50;;;6.92;100.00
49122;BME280;35529;44.342;25.944;2023-01-29T09:02:12;101262.63;;;7.08;100.00
49122;BME280;35529;44.342;25.944;2023-01-29T09:04:38;101260.94;;;7.25;100.00
49122;BME280;35529;44.342;25.944;2023-01-29T09:07:04;101258.84;;;7.37;100.00
49122;BME280;35529;44.342;25.944;2023-01-29T09:09:30;101251.22;;;7.34;100.00
49122;BME280;35529;44.342;25.944;2023-01-29T09:11:56;101261.28;;;7.30;100.00
49122;BME280;35529;44.342;25.944;2023-01-29T09:14:22;101255.16;;;7.30;100.00
49122;BME280;35529;44.342;25.944;2023-01-29T09:16:48;101259.47;;;7.31;100.00
49122;BME280;35529;44.342;25.944;2023-01-29T09:19:14;101252.53;;;7.30;100.00
49122;BME280;35529;44.342;25.944;2023-01-29T09:21:40;101250.41;;;7.33;100.00
49122;BME280;35529;44.342;25.944;2023-01-29T09:24:06;101251.75;;;7.37;100.00
49122;BME280;35529;44.342;25.944;2023-01-29T09:26:32;101248.50;;;7.44;100.00
49122;BME280;35529;44.342;25.944;2023-01-29T09:28:59;101236.66;;;7.56;100.00
49122;BME280;35529;44.342;25.944;2023-01-29T09:31:25;101242.38;;;7.78;100.00
49122;BME280;35529;44.342;25.944;2023-01-29T09:33:51;101234.00;;;7.91;100.00
49122;BME280;35529;44.342;25.944;2023-01-29T09:36:17;101221.06;;;7.79;100.00
49122;BME280;35529;44.342;25.944;2023-01-29T09:38:43;101226.22;;;7.89;100.00
49122;BME280;35529;44.342;25.944;2023-01-29T09:43:55;101215.88;;;7.61;100.00
49122;BME280;35529;44.342;25.944;2023-01-29T09:48:51;101225.75;;;6.98;100.00
49122;BME280;35529;44.342;25.944;2023-01-29T09:51:39;101235.06;;;7.11;100.00
49122;BME280;35529;44.342;25.944;2023-01-29T09:54:13;101234.31;;;7.18;100.00
49122;BME280;35529;44.342;25.944;2023-01-29T09:56:41;101218.97;;;7.22;100.00
49122;BME280;35529;44.342;25.944;2023-01-29T09:59:09;101216.63;;;7.19;100.00
49122;BME280;35529;44.342;25.944;2023-01-29T10:19:53;101213.22;;;7.27;100.00
49122;BME280;35529;44.342;25.944;2023-01-29T10:25:04;101215.28;;;7.41;100.00
49122;BME280;35529;44.342;25.944;2023-01-29T10:27:33;101209.16;;;7.41;100.00
49122;BME280;35529;44.342;25.944;2023-01-29T10:30:15;101196.41;;;7.28;100.00
49122;BME280;35529;44.342;25.944;2023-01-29T10:32:45;101209.75;;;7.26;100.00
49122;BME280;35529;44.342;25.944;2023-01-29T10:35:21;101204.78;;;7.23;100.00
49122;BME280;35529;44.342;25.944;2023-01-29T10:37:47;101210.13;;;7.05;100.00
49122;BME280;35529;44.342;25.944;2023-01-29T10:40:50;101210.72;;;6.73;100.00
49122;BME280;35529;44.342;25.944;2023-01-29T10:43:14;101228.19;;;6.37;100.00
49122;BME280;35529;44.342;25.944;2023-01-29T10:51:17;101194.44;;;6.05;100.00
49122;BME280;35529;44.342;25.944;2023-01-29T10:56:43;101194.84;;;6.28;100.00
49122;BME280;35529;44.342;25.944;2023-01-29T11:01:49;101198.44;;;6.45;100.00
49122;BME280;35529;44.342;25.944;2023-01-29T11:04:16;101191.13;;;6.57;100.00
49122;BME280;35529;44.342;25.944;2023-01-29T11:06:42;101192.47;;;6.61;100.00
49122;BME280;35529;44.342;25.944;2023-01-29T11:11:56;101164.63;;;6.67;100.00
49122;BME280;35529;44.342;25.944;2023-01-29T11:14:44;101161.66;;;6.62;100.00
49122;BME280;35529;44.342;25.944;2023-01-29T11:17:15;101163.69;;;6.50;100.00
49122;BME280;35529;44.342;25.944;2023-01-29T11:19:42;101160.38;;;6.48;100.00
49122;BME280;35529;44.342;25.944;2023-01-29T11:22:13;101157.19;;;6.62;100.00
49122;BME280;35529;44.342;25.944;2023-01-29T11:24:40;101161.22;;;6.75;100.00
49122;BME280;35529;44.342;25.944;2023-01-29T11:27:27;101165.06;;;6.80;100.00
49122;BME280;35529;44.342;25.944;2023-01-29T11:29:54;101170.88;;;6.84;100.00
49122;BME280;35529;44.342;25.944;2023-01-29T11:39:57;101169.25;;;6.47;100.00
49122;BME280;35529;44.342;25.944;2023-01-29T11:42:23;101169.19;;;6.38;100.00
49122;BME280;35529;44.342;25.944;2023-01-29T11:44:51;101166.97;;;6.26;100.00
49122;BME280;35529;44.342;25.944;2023-01-29T11:47:18;101161.97;;;6.23;100.00
49122;BME280;35529;44.342;25.944;2023-01-29T11:52:14;101160.63;;;6.00;100.00
49122;BME280;35529;44.342;25.944;2023-01-29T11:54:49;101162.41;;;6.00;100.00
49122;BME280;35529;44.342;25.944;2023-01-29T11:57:27;101172.41;;;5.96;100.00
49122;BME280;35529;44.342;25.944;2023-01-29T11:59:55;101164.91;;;6.01;100.00
49122;BME280;35529;44.342;25.944;2023-01-29T12:04:48;101170.19;;;6.01;100.00
49122;BME280;35529;44.342;25.944;2023-01-29T12:07:18;101174.19;;;5.96;100.00
49122;BME280;35529;44.342;25.944;2023-01-29T12:13:04;101173.31;;;5.87;100.00
49122;BME280;35529;44.342;25.944;2023-01-29T12:15:30;101170.56;;;5.79;100.00
49122;BME280;35529;44.342;25.944;2023-01-29T12:20:52;101166.47;;;5.66;100.00
49122;BME280;35529;44.342;25.944;2023-01-29T12:23:26;101159.09;;;5.70;100.00
49122;BME280;35529;44.342;25.944;2023-01-29T12:28:30;101169.78;;;5.68;100.00
49122;BME280;35529;44.342;25.944;2023-01-29T12:31:04;101172.84;;;5.64;100.00
49122;BME280;35529;44.342;25.944;2023-01-29T12:33:36;101170.22;;;5.64;100.00
49122;BME280;35529;44.342;25.944;2023-01-29T12:36:07;101166.09;;;5.61;100.00
49122;BME280;35529;44.342;25.944;2023-01-29T12:38:35;101158.78;;;5.55;100.00
49122;BME280;35529;44.342;25.944;2023-01-29T12:41:07;101158.22;;;5.51;100.00
49122;BME280;35529;44.342;25.944;2023-01-29T12:46:02;101154.38;;;5.46;100.00
49122;BME280;35529;44.342;25.944;2023-01-29T12:48:32;101160.09;;;5.41;100.00
49122;BME280;35529;44.342;25.944;2023-01-29T12:51:22;101151.25;;;5.32;100.00
49122;BME280;35529;44.342;25.944;2023-01-29T12:59:18;101159.63;;;5.18;100.00
49122;BME280;35529;44.342;25.944;2023-01-29T13:01:51;101158.13;;;5.06;100.00
49122;BME280;35529;44.342;25.944;2023-01-29T13:06:49;101154.69;;;4.95;100.00
49122;BME280;35529;44.342;25.944;2023-01-29T13:09:19;101159.97;;;4.95;100.00
49122;BME280;35529;44.342;25.944;2023-01-29T13:11:49;101165.22;;;4.95;100.00
49122;BME280;35529;44.342;25.944;2023-01-29T13:14:24;101163.03;;;4.91;100.00
49122;BME280;35529;44.342;25.944;2023-01-29T13:17:06;101168.84;;;4.84;100.00
49122;BME280;35529;44.342;25.944;2023-01-29T13:19:35;101174.25;;;4.83;100.00
49122;BME280;35529;44.342;25.944;2023-01-29T13:22:02;101166.50;;;4.81;100.00
49122;BME280;35529;44.342;25.944;2023-01-29T13:24:36;101163.03;;;4.81;100.00
49122;BME280;35529;44.342;25.944;2023-01-29T13:27:04;101172.88;;;4.79;100.00
49122;BME280;35529;44.342;25.944;2023-01-29T13:29:30;101173.59;;;4.71;100.00
49122;BME280;35529;44.342;25.944;2023-01-29T13:32:01;101180.38;;;4.64;100.00
49122;BME280;35529;44.342;25.944;2023-01-29T13:34:31;101176.63;;;4.57;100.00
49122;BME280;35529;44.342;25.944;2023-01-29T13:37:01;101179.84;;;4.50;100.00
49122;BME280;35529;44.342;25.944;2023-01-29T13:41:58;101167.53;;;4.31;100.00
49122;BME280;35529;44.342;25.944;2023-01-29T13:44:25;101176.63;;;4.27;100.00
49122;BME280;35529;44.342;25.944;2023-01-29T13:46:54;101170.13;;;4.22;100.00
49122;BME280;35529;44.342;25.944;2023-01-29T13:49:23;101174.88;;;4.18;100.00
49122;BME280;35529;44.342;25.944;2023-01-29T13:51:50;101170.56;;;4.17;100.00
49122;BME280;35529;44.342;25.944;2023-01-29T13:54:16;101168.34;;;4.12;100.00
49122;BME280;35529;44.342;25.944;2023-01-29T13:56:55;101165.47;;;4.15;100.00
49122;BME280;35529;44.342;25.944;2023-01-29T13:59:47;101174.44;;;4.13;100.00
49122;BME280;35529;44.342;25.944;2023-01-29T14:02:18;101175.41;;;4.12;100.00
49122;BME280;35529;44.342;25.944;2023-01-29T14:04:45;101173.06;;;4.09;100.00
49122;BME280;35529;44.342;25.944;2023-01-29T14:10:08;101175.66;;;3.99;100.00
49122;BME280;35529;44.342;25.944;2023-01-29T14:12:38;101166.53;;;3.93;100.00
49122;BME280;35529;44.342;25.944;2023-01-29T14:17:39;101178.53;;;3.86;100.00
49122;BME280;35529;44.342;25.944;2023-01-29T14:20:19;101178.41;;;3.78;100.00
49122;BME280;35529;44.342;25.944;2023-01-29T14:22:55;101179.50;;;3.75;100.00
49122;BME280;35529;44.342;25.944;2023-01-29T14:25:23;101172.41;;;3.66;100.00
49122;BME280;35529;44.342;25.944;2023-01-29T14:27:53;101168.94;;;3.65;100.00
49122;BME280;35529;44.342;25.944;2023-01-29T14:30:19;101175.19;;;3.64;100.00
49122;BME280;35529;44.342;25.944;2023-01-29T14:32:47;101168.50;;;3.60;100.00
49122;BME280;35529;44.342;25.944;2023-01-29T14:35:18;101167.38;;;3.53;100.00
49122;BME280;35529;44.342;25.944;2023-01-29T14:37:49;101169.72;;;3.46;100.00
49122;BME280;35529;44.342;25.944;2023-01-29T14:45:20;101169.50;;;3.59;100.00
49122;BME280;35529;44.342;25.944;2023-01-29T14:52:58;101169.84;;;3.45;100.00
49122;BME280;35529;44.342;25.944;2023-01-29T14:57:51;101160.59;;;3.41;100.00
49122;BME280;35529;44.342;25.944;2023-01-29T15:00:23;101167.75;;;3.39;100.00